Disclaimer

Please do not use the information listed here in-flight or in-navigation, as they are not provided to us by the airports but are provided by volunteers, so they might be outdated.

Search


Regions


Airport information page

Radio informations:
Tower (TWR) - 119.85 MHz
Ground (GND) - 129.15 MHz
Approach (APP) - 119.85 MHz

Airport informations:
Latitude: 24° 15' 42.00" N
Longitude: 055° 36' 33.00" E
Elevation: 869 feet - 265 meters
Operating hours: 24 hour operations
Operating agency: Civil government, landing fees and diplomatic clearance may be required
Timezone: UTC+4
Fuel: Unknown fuel type or whether there is any fuel.

Runway information:
01/19 - 13123 x 148 feet< - >4000 x 45 meters

Recent METARs:
OMAL 180600Z 35012KT 9999 SCT019 26/21 Q1018 NOSIG
OMAL 180700Z 33010KT 280V360 9999 FEW023 28/21 Q1017 NOSIG
OMAL 180700Z 33010KT 280V360 9999 FEW023 28/21 Q1017 NOSIG

Airport on the map: